Terminal Aerodrome Forecast
Issued by NWS

Home | Current Version | Previous Version | Text Only | Print | Product List | Glossary On
Versions: 1 2 3 4 5 6 7 8 9 10 11 12 13 14 15 16 17 18 19 20 21 22 23 24 25
000
FTUS43 KMKX 232338
TAFUES
TAF
KUES 232338Z 2400/2424 15011G17KT P6SM VCTS OVC035CB
     FM240100 16004KT P6SM -TSRA OVC025CB
      TEMPO 2401/2404 3SM TSRA OVC020CB
     FM240400 18005KT P6SM BKN080 WS020/20045KT
     FM241200 21005KT P6SM BKN025 WS020/24045KT
     FM241400 21006KT P6SM BKN050
     FM242200 27004KT P6SM OVC030=

USA.gov is the U.S. government's official web portal to all federal, state and local government web resources and services.